sensor_id;sensor_type;location;lat;lon;timestamp;pressure;altitude;pressure_sealevel;temperature;humidity
63088;BME280;49173;43.164;27.786;2023-12-14T00:01:29;99580.06;;;8.65;100.00
63088;BME280;49173;43.164;27.786;2023-12-14T00:03:54;99585.25;;;8.68;100.00
63088;BME280;49173;43.164;27.786;2023-12-14T00:06:20;99586.88;;;8.70;100.00
63088;BME280;49173;43.164;27.786;2023-12-14T00:08:46;99585.81;;;8.73;100.00
63088;BME280;49173;43.164;27.786;2023-12-14T00:11:12;99585.91;;;8.71;100.00
63088;BME280;49173;43.164;27.786;2023-12-14T00:13:38;99572.44;;;8.73;100.00
63088;BME280;49173;43.164;27.786;2023-12-14T00:16:05;99577.88;;;8.71;100.00
63088;BME280;49173;43.164;27.786;2023-12-14T00:18:31;99573.50;;;8.70;100.00
63088;BME280;49173;43.164;27.786;2023-12-14T00:20:56;99571.50;;;8.74;100.00
63088;BME280;49173;43.164;27.786;2023-12-14T00:23:23;99579.25;;;8.78;100.00
63088;BME280;49173;43.164;27.786;2023-12-14T00:25:49;99582.97;;;8.76;100.00
63088;BME280;49173;43.164;27.786;2023-12-14T00:28:15;99577.53;;;8.77;100.00
63088;BME280;49173;43.164;27.786;2023-12-14T00:30:41;99567.78;;;8.76;100.00
63088;BME280;49173;43.164;27.786;2023-12-14T00:33:07;99573.78;;;8.80;100.00
63088;BME280;49173;43.164;27.786;2023-12-14T00:35:32;99580.09;;;8.79;100.00
63088;BME280;49173;43.164;27.786;2023-12-14T00:37:58;99577.44;;;8.79;100.00
63088;BME280;49173;43.164;27.786;2023-12-14T00:40:24;99571.97;;;8.80;100.00
63088;BME280;49173;43.164;27.786;2023-12-14T00:42:50;99572.66;;;8.84;100.00
63088;BME280;49173;43.164;27.786;2023-12-14T00:45:16;99579.63;;;8.87;100.00
63088;BME280;49173;43.164;27.786;2023-12-14T00:47:42;99579.56;;;8.88;100.00
63088;BME280;49173;43.164;27.786;2023-12-14T00:50:08;99563.69;;;8.85;100.00
63088;BME280;49173;43.164;27.786;2023-12-14T00:52:34;99566.56;;;8.82;100.00
63088;BME280;49173;43.164;27.786;2023-12-14T00:55:00;99570.34;;;8.78;100.00
63088;BME280;49173;43.164;27.786;2023-12-14T00:57:26;99567.28;;;8.70;100.00
63088;BME280;49173;43.164;27.786;2023-12-14T00:59:52;99564.03;;;8.65;100.00
63088;BME280;49173;43.164;27.786;2023-12-14T01:02:18;99567.84;;;8.61;100.00
63088;BME280;49173;43.164;27.786;2023-12-14T01:04:43;99571.66;;;8.57;100.00
63088;BME280;49173;43.164;27.786;2023-12-14T01:07:09;99570.88;;;8.55;100.00
63088;BME280;49173;43.164;27.786;2023-12-14T01:09:35;99582.69;;;8.50;100.00
63088;BME280;49173;43.164;27.786;2023-12-14T01:12:01;99567.00;;;8.44;100.00
63088;BME280;49173;43.164;27.786;2023-12-14T01:14:30;99565.66;;;8.37;100.00
63088;BME280;49173;43.164;27.786;2023-12-14T01:16:56;99564.09;;;8.33;100.00
63088;BME280;49173;43.164;27.786;2023-12-14T01:19:22;99566.38;;;8.25;100.00
63088;BME280;49173;43.164;27.786;2023-12-14T01:21:47;99564.91;;;8.19;100.00
63088;BME280;49173;43.164;27.786;2023-12-14T01:24:14;99558.09;;;8.14;100.00
63088;BME280;49173;43.164;27.786;2023-12-14T01:26:40;99542.41;;;8.08;100.00
63088;BME280;49173;43.164;27.786;2023-12-14T01:29:06;99543.56;;;8.04;100.00
63088;BME280;49173;43.164;27.786;2023-12-14T01:31:32;99549.06;;;8.01;100.00
63088;BME280;49173;43.164;27.786;2023-12-14T01:33:58;99550.09;;;7.98;100.00
63088;BME280;49173;43.164;27.786;2023-12-14T01:36:25;99544.84;;;7.96;100.00
63088;BME280;49173;43.164;27.786;2023-12-14T01:38:52;99537.00;;;7.93;100.00
63088;BME280;49173;43.164;27.786;2023-12-14T01:41:18;99538.03;;;7.91;100.00
63088;BME280;49173;43.164;27.786;2023-12-14T01:43:44;99529.22;;;7.89;100.00
63088;BME280;49173;43.164;27.786;2023-12-14T01:46:11;99522.19;;;7.88;100.00
63088;BME280;49173;43.164;27.786;2023-12-14T01:48:36;99527.63;;;7.86;100.00
63088;BME280;49173;43.164;27.786;2023-12-14T01:51:03;99533.06;;;7.85;100.00
63088;BME280;49173;43.164;27.786;2023-12-14T01:53:28;99536.78;;;7.82;100.00
63088;BME280;49173;43.164;27.786;2023-12-14T01:55:54;99535.97;;;7.80;100.00
63088;BME280;49173;43.164;27.786;2023-12-14T01:58:20;99540.56;;;7.78;100.00
63088;BME280;49173;43.164;27.786;2023-12-14T02:00:58;99544.28;;;7.76;100.00
63088;BME280;49173;43.164;27.786;2023-12-14T02:03:27;99543.38;;;7.75;100.00
63088;BME280;49173;43.164;27.786;2023-12-14T02:05:53;99539.94;;;7.73;100.00
63088;BME280;49173;43.164;27.786;2023-12-14T02:08:19;99538.03;;;7.75;100.00
63088;BME280;49173;43.164;27.786;2023-12-14T02:10:45;99529.34;;;7.71;100.00
63088;BME280;49173;43.164;27.786;2023-12-14T02:13:10;99536.31;;;7.74;100.00
63088;BME280;49173;43.164;27.786;2023-12-14T02:15:36;99532.78;;;7.74;100.00
63088;BME280;49173;43.164;27.786;2023-12-14T02:18:02;99536.25;;;7.76;100.00
63088;BME280;49173;43.164;27.786;2023-12-14T02:20:28;99532.69;;;7.75;100.00
63088;BME280;49173;43.164;27.786;2023-12-14T02:22:54;99530.47;;;7.83;100.00
63088;BME280;49173;43.164;27.786;2023-12-14T02:25:23;99529.34;;;7.87;100.00
63088;BME280;49173;43.164;27.786;2023-12-14T02:27:50;99532.59;;;7.92;100.00
63088;BME280;49173;43.164;27.786;2023-12-14T02:30:17;99527.88;;;7.97;100.00
63088;BME280;49173;43.164;27.786;2023-12-14T02:32:44;99530.34;;;8.01;100.00
63088;BME280;49173;43.164;27.786;2023-12-14T02:35:10;99524.75;;;8.05;100.00
63088;BME280;49173;43.164;27.786;2023-12-14T02:37:36;99524.56;;;8.08;100.00
63088;BME280;49173;43.164;27.786;2023-12-14T02:40:08;99529.66;;;8.13;100.00
63088;BME280;49173;43.164;27.786;2023-12-14T02:42:34;99525.25;;;8.12;100.00
63088;BME280;49173;43.164;27.786;2023-12-14T02:45:00;99526.13;;;8.12;100.00
63088;BME280;49173;43.164;27.786;2023-12-14T02:47:28;99532.31;;;8.13;100.00
63088;BME280;49173;43.164;27.786;2023-12-14T02:49:54;99529.56;;;8.14;100.00
63088;BME280;49173;43.164;27.786;2023-12-14T02:52:20;99541.50;;;8.23;100.00
63088;BME280;49173;43.164;27.786;2023-12-14T02:54:46;99532.53;;;8.24;100.00
63088;BME280;49173;43.164;27.786;2023-12-14T02:57:12;99524.94;;;8.32;100.00
63088;BME280;49173;43.164;27.786;2023-12-14T02:59:39;99528.22;;;8.37;100.00
63088;BME280;49173;43.164;27.786;2023-12-14T03:02:04;99527.88;;;8.43;100.00
63088;BME280;49173;43.164;27.786;2023-12-14T03:04:30;99534.06;;;8.44;100.00
63088;BME280;49173;43.164;27.786;2023-12-14T03:06:58;99539.91;;;8.50;100.00
63088;BME280;49173;43.164;27.786;2023-12-14T03:09:30;99540.41;;;8.57;100.00
63088;BME280;49173;43.164;27.786;2023-12-14T03:11:56;99536.69;;;8.60;100.00
63088;BME280;49173;43.164;27.786;2023-12-14T03:14:23;99535.75;;;8.61;100.00
63088;BME280;49173;43.164;27.786;2023-12-14T03:16:49;99531.34;;;8.60;100.00
63088;BME280;49173;43.164;27.786;2023-12-14T03:19:15;99528.50;;;8.63;100.00
63088;BME280;49173;43.164;27.786;2023-12-14T03:21:42;99527.34;;;8.67;100.00
63088;BME280;49173;43.164;27.786;2023-12-14T03:24:08;99525.09;;;8.75;100.00
63088;BME280;49173;43.164;27.786;2023-12-14T03:26:35;99526.44;;;8.82;100.00
63088;BME280;49173;43.164;27.786;2023-12-14T03:29:01;99522.50;;;8.88;100.00
63088;BME280;49173;43.164;27.786;2023-12-14T03:31:27;99517.63;;;8.94;100.00
63088;BME280;49173;43.164;27.786;2023-12-14T03:33:53;99512.84;;;8.99;100.00
63088;BME280;49173;43.164;27.786;2023-12-14T03:36:18;99523.19;;;9.05;100.00
63088;BME280;49173;43.164;27.786;2023-12-14T03:38:46;99514.78;;;9.12;100.00
63088;BME280;49173;43.164;27.786;2023-12-14T03:41:14;99516.09;;;9.19;100.00
63088;BME280;49173;43.164;27.786;2023-12-14T03:43:40;99526.53;;;9.23;100.00
63088;BME280;49173;43.164;27.786;2023-12-14T03:46:06;99519.16;;;9.27;100.00
63088;BME280;49173;43.164;27.786;2023-12-14T03:48:32;99523.56;;;9.28;100.00
63088;BME280;49173;43.164;27.786;2023-12-14T03:51:04;99520.03;;;9.27;100.00
63088;BME280;49173;43.164;27.786;2023-12-14T03:53:31;99525.38;;;9.27;100.00
63088;BME280;49173;43.164;27.786;2023-12-14T03:56:00;99525.97;;;9.18;100.00
63088;BME280;49173;43.164;27.786;2023-12-14T03:58:28;99524.78;;;9.08;100.00
63088;BME280;49173;43.164;27.786;2023-12-14T04:00:54;99530.34;;;9.05;100.00
63088;BME280;49173;43.164;27.786;2023-12-14T04:03:20;99529.19;;;9.09;100.00
63088;BME280;49173;43.164;27.786;2023-12-14T04:05:46;99527.31;;;9.11;100.00
63088;BME280;49173;43.164;27.786;2023-12-14T04:08:12;99538.50;;;9.18;100.00
63088;BME280;49173;43.164;27.786;2023-12-14T04:10:37;99535.03;;;9.16;100.00
63088;BME280;49173;43.164;27.786;2023-12-14T04:13:03;99544.81;;;9.17;100.00
63088;BME280;49173;43.164;27.786;2023-12-14T04:15:29;99546.31;;;9.21;100.00
63088;BME280;49173;43.164;27.786;2023-12-14T04:17:55;99555.09;;;9.23;100.00
63088;BME280;49173;43.164;27.786;2023-12-14T04:20:20;99554.06;;;9.25;100.00
63088;BME280;49173;43.164;27.786;2023-12-14T04:22:46;99558.47;;;9.26;100.00
63088;BME280;49173;43.164;27.786;2023-12-14T04:25:13;99555.59;;;9.29;100.00
63088;BME280;49173;43.164;27.786;2023-12-14T04:27:38;99539.44;;;9.31;100.00
63088;BME280;49173;43.164;27.786;2023-12-14T04:30:05;99533.03;;;9.33;100.00
63088;BME280;49173;43.164;27.786;2023-12-14T04:32:31;99538.09;;;9.38;100.00
63088;BME280;49173;43.164;27.786;2023-12-14T04:34:57;99542.19;;;9.44;100.00
63088;BME280;49173;43.164;27.786;2023-12-14T04:37:22;99528.28;;;9.51;100.00
63088;BME280;49173;43.164;27.786;2023-12-14T04:39:48;99537.59;;;9.60;100.00
63088;BME280;49173;43.164;27.786;2023-12-14T04:42:14;99549.16;;;9.60;100.00
63088;BME280;49173;43.164;27.786;2023-12-14T04:44:40;99541.22;;;9.59;100.00
63088;BME280;49173;43.164;27.786;2023-12-14T04:47:05;99527.91;;;9.57;100.00
63088;BME280;49173;43.164;27.786;2023-12-14T04:49:32;99525.34;;;9.56;100.00
63088;BME280;49173;43.164;27.786;2023-12-14T04:51:58;99529.66;;;9.58;100.00
63088;BME280;49173;43.164;27.786;2023-12-14T04:54:23;99530.50;;;9.59;100.00
63088;BME280;49173;43.164;27.786;2023-12-14T04:56:49;99532.41;;;9.57;100.00
63088;BME280;49173;43.164;27.786;2023-12-14T04:59:15;99529.94;;;9.54;100.00
63088;BME280;49173;43.164;27.786;2023-12-14T05:01:41;99537.41;;;9.49;100.00
63088;BME280;49173;43.164;27.786;2023-12-14T05:04:07;99521.22;;;9.50;100.00
63088;BME280;49173;43.164;27.786;2023-12-14T05:06:33;99507.09;;;9.48;100.00
63088;BME280;49173;43.164;27.786;2023-12-14T05:09:00;99515.59;;;9.55;100.00
63088;BME280;49173;43.164;27.786;2023-12-14T05:11:29;99519.88;;;9.57;100.00
63088;BME280;49173;43.164;27.786;2023-12-14T05:13:55;99520.72;;;9.58;100.00
63088;BME280;49173;43.164;27.786;2023-12-14T05:16:21;99527.91;;;9.57;100.00
63088;BME280;49173;43.164;27.786;2023-12-14T05:18:47;99523.34;;;9.59;100.00
63088;BME280;49173;43.164;27.786;2023-12-14T05:21:17;99521.50;;;9.60;100.00
63088;BME280;49173;43.164;27.786;2023-12-14T05:23:43;99510.78;;;9.60;100.00
63088;BME280;49173;43.164;27.786;2023-12-14T05:26:09;99516.50;;;9.68;100.00
63088;BME280;49173;43.164;27.786;2023-12-14T05:28:34;99518.59;;;9.77;100.00
63088;BME280;49173;43.164;27.786;2023-12-14T05:31:00;99523.75;;;9.80;100.00
63088;BME280;49173;43.164;27.786;2023-12-14T05:33:26;99519.03;;;9.84;100.00
63088;BME280;49173;43.164;27.786;2023-12-14T05:35:52;99519.63;;;9.89;100.00
63088;BME280;49173;43.164;27.786;2023-12-14T05:38:19;99522.94;;;9.93;100.00
63088;BME280;49173;43.164;27.786;2023-12-14T05:40:45;99514.91;;;9.93;100.00
63088;BME280;49173;43.164;27.786;2023-12-14T05:43:10;99520.19;;;9.94;100.00
63088;BME280;49173;43.164;27.786;2023-12-14T05:45:36;99514.81;;;9.94;100.00
63088;BME280;49173;43.164;27.786;2023-12-14T05:48:02;99524.34;;;9.98;100.00
63088;BME280;49173;43.164;27.786;2023-12-14T05:50:31;99518.03;;;9.99;100.00
63088;BME280;49173;43.164;27.786;2023-12-14T05:52:57;99514.38;;;10.00;100.00
63088;BME280;49173;43.164;27.786;2023-12-14T05:55:22;99513.53;;;10.00;100.00
63088;BME280;49173;43.164;27.786;2023-12-14T05:57:49;99516.22;;;10.00;100.00
63088;BME280;49173;43.164;27.786;2023-12-14T06:00:17;99525.88;;;10.02;100.00
63088;BME280;49173;43.164;27.786;2023-12-14T06:02:43;99530.41;;;10.02;100.00
63088;BME280;49173;43.164;27.786;2023-12-14T06:05:09;99535.66;;;10.03;100.00
63088;BME280;49173;43.164;27.786;2023-12-14T06:07:34;99538.91;;;10.08;100.00
63088;BME280;49173;43.164;27.786;2023-12-14T06:10:01;99537.94;;;10.09;100.00
63088;BME280;49173;43.164;27.786;2023-12-14T06:12:27;99534.38;;;10.09;100.00
63088;BME280;49173;43.164;27.786;2023-12-14T06:14:53;99533.53;;;10.08;100.00
63088;BME280;49173;43.164;27.786;2023-12-14T06:17:18;99529.88;;;10.09;100.00
63088;BME280;49173;43.164;27.786;2023-12-14T06:19:44;99538.69;;;10.11;100.00
63088;BME280;49173;43.164;27.786;2023-12-14T06:22:10;99549.41;;;10.11;100.00
63088;BME280;49173;43.164;27.786;2023-12-14T06:24:36;99551.97;;;10.13;100.00
63088;BME280;49173;43.164;27.786;2023-12-14T06:27:02;99545.97;;;10.09;100.00
63088;BME280;49173;43.164;27.786;2023-12-14T06:29:27;99563.97;;;10.07;100.00
63088;BME280;49173;43.164;27.786;2023-12-14T06:31:53;99547.78;;;10.09;100.00
63088;BME280;49173;43.164;27.786;2023-12-14T06:34:19;99556.47;;;10.12;100.00
63088;BME280;49173;43.164;27.786;2023-12-14T06:36:45;99559.72;;;10.17;100.00
63088;BME280;49173;43.164;27.786;2023-12-14T06:39:11;99558.53;;;10.22;100.00
63088;BME280;49173;43.164;27.786;2023-12-14T06:41:37;99559.81;;;10.30;100.00
63088;BME280;49173;43.164;27.786;2023-12-14T06:44:04;99548.69;;;10.36;100.00
63088;BME280;49173;43.164;27.786;2023-12-14T06:46:31;99545.78;;;10.39;100.00
63088;BME280;49173;43.164;27.786;2023-12-14T06:48:57;99546.44;;;10.43;100.00
63088;BME280;49173;43.164;27.786;2023-12-14T06:51:23;99545.06;;;10.50;100.00
63088;BME280;49173;43.164;27.786;2023-12-14T06:53:48;99551.72;;;10.57;100.00
63088;BME280;49173;43.164;27.786;2023-12-14T06:56:14;99547.00;;;10.61;100.00
63088;BME280;49173;43.164;27.786;2023-12-14T06:58:42;99549.56;;;10.62;100.00
63088;BME280;49173;43.164;27.786;2023-12-14T07:01:15;99560.97;;;10.66;100.00
63088;BME280;49173;43.164;27.786;2023-12-14T07:03:41;99558.19;;;10.67;100.00
63088;BME280;49173;43.164;27.786;2023-12-14T07:06:16;99566.78;;;10.72;100.00
63088;BME280;49173;43.164;27.786;2023-12-14T07:08:43;99564.84;;;10.75;100.00
63088;BME280;49173;43.164;27.786;2023-12-14T07:11:10;99548.50;;;10.78;100.00
63088;BME280;49173;43.164;27.786;2023-12-14T07:13:36;99566.16;;;10.82;100.00
63088;BME280;49173;43.164;27.786;2023-12-14T07:16:11;99561.19;;;10.76;100.00
63088;BME280;49173;43.164;27.786;2023-12-14T07:18:38;99552.59;;;10.70;100.00
63088;BME280;49173;43.164;27.786;2023-12-14T07:21:05;99559.25;;;10.78;100.00
63088;BME280;49173;43.164;27.786;2023-12-14T07:23:31;99564.31;;;10.82;100.00
63088;BME280;49173;43.164;27.786;2023-12-14T07:25:57;99568.53;;;10.86;100.00
63088;BME280;49173;43.164;27.786;2023-12-14T07:28:23;99577.88;;;10.93;100.00
63088;BME280;49173;43.164;27.786;2023-12-14T07:30:49;99562.41;;;10.97;100.00
63088;BME280;49173;43.164;27.786;2023-12-14T07:33:15;99575.41;;;11.03;100.00
63088;BME280;49173;43.164;27.786;2023-12-14T07:35:41;99572.59;;;11.05;100.00
63088;BME280;49173;43.164;27.786;2023-12-14T07:38:08;99573.25;;;11.08;100.00
63088;BME280;49173;43.164;27.786;2023-12-14T07:40:34;99546.84;;;11.15;100.00
63088;BME280;49173;43.164;27.786;2023-12-14T07:43:00;99565.09;;;11.22;100.00
63088;BME280;49173;43.164;27.786;2023-12-14T07:45:25;99574.22;;;11.33;100.00
63088;BME280;49173;43.164;27.786;2023-12-14T07:47:51;99573.78;;;11.39;100.00
63088;BME280;49173;43.164;27.786;2023-12-14T07:50:17;99572.06;;;11.38;100.00
63088;BME280;49173;43.164;27.786;2023-12-14T07:52:43;99574.53;;;11.41;100.00
63088;BME280;49173;43.164;27.786;2023-12-14T07:55:09;99583.25;;;11.44;100.00
63088;BME280;49173;43.164;27.786;2023-12-14T07:57:34;99579.34;;;11.48;100.00
63088;BME280;49173;43.164;27.786;2023-12-14T08:00:00;99581.09;;;11.49;100.00
63088;BME280;49173;43.164;27.786;2023-12-14T08:02:26;99574.75;;;11.50;100.00
63088;BME280;49173;43.164;27.786;2023-12-14T08:04:52;99585.38;;;11.52;100.00
63088;BME280;49173;43.164;27.786;2023-12-14T08:07:18;99575.78;;;11.61;100.00
63088;BME280;49173;43.164;27.786;2023-12-14T08:09:43;99563.84;;;11.65;100.00
63088;BME280;49173;43.164;27.786;2023-12-14T08:12:09;99572.53;;;11.68;100.00
63088;BME280;49173;43.164;27.786;2023-12-14T08:14:35;99556.22;;;11.71;100.00
63088;BME280;49173;43.164;27.786;2023-12-14T08:17:03;99569.31;;;11.76;100.00
63088;BME280;49173;43.164;27.786;2023-12-14T08:19:29;99566.97;;;11.84;100.00
63088;BME280;49173;43.164;27.786;2023-12-14T08:21:54;99555.75;;;11.90;100.00
63088;BME280;49173;43.164;27.786;2023-12-14T08:24:20;99556.38;;;11.94;100.00
63088;BME280;49173;43.164;27.786;2023-12-14T08:26:47;99566.06;;;11.96;100.00
63088;BME280;49173;43.164;27.786;2023-12-14T08:29:13;99561.31;;;12.00;100.00
63088;BME280;49173;43.164;27.786;2023-12-14T08:31:39;99566.13;;;12.07;100.00
63088;BME280;49173;43.164;27.786;2023-12-14T08:34:05;99553.63;;;12.19;100.00
63088;BME280;49173;43.164;27.786;2023-12-14T08:36:31;99558.06;;;12.31;100.00
63088;BME280;49173;43.164;27.786;2023-12-14T08:38:57;99555.63;;;12.40;100.00
63088;BME280;49173;43.164;27.786;2023-12-14T08:41:24;99567.66;;;12.47;100.00
63088;BME280;49173;43.164;27.786;2023-12-14T08:43:50;99562.06;;;12.50;100.00
63088;BME280;49173;43.164;27.786;2023-12-14T08:46:16;99559.13;;;12.53;100.00
63088;BME280;49173;43.164;27.786;2023-12-14T08:48:45;99560.63;;;12.57;100.00
63088;BME280;49173;43.164;27.786;2023-12-14T08:51:11;99555.00;;;12.60;100.00
63088;BME280;49173;43.164;27.786;2023-12-14T08:53:37;99553.78;;;12.64;100.00
63088;BME280;49173;43.164;27.786;2023-12-14T08:56:04;99557.59;;;12.73;100.00
63088;BME280;49173;43.164;27.786;2023-12-14T08:58:30;99556.03;;;12.81;100.00
63088;BME280;49173;43.164;27.786;2023-12-14T09:00:56;99553.97;;;12.85;99.95
63088;BME280;49173;43.164;27.786;2023-12-14T09:03:22;99552.66;;;12.90;99.72
63088;BME280;49173;43.164;27.786;2023-12-14T09:05:48;99543.59;;;12.91;100.00
63088;BME280;49173;43.164;27.786;2023-12-14T09:08:13;99540.44;;;12.98;99.62
63088;BME280;49173;43.164;27.786;2023-12-14T09:10:39;99538.19;;;13.03;99.29
63088;BME280;49173;43.164;27.786;2023-12-14T09:13:05;99543.38;;;13.06;99.69
63088;BME280;49173;43.164;27.786;2023-12-14T09:15:32;99538.97;;;13.05;100.00
63088;BME280;49173;43.164;27.786;2023-12-14T09:17:57;99538.13;;;13.04;100.00
63088;BME280;49173;43.164;27.786;2023-12-14T09:20:23;99541.75;;;13.03;100.00
63088;BME280;49173;43.164;27.786;2023-12-14T09:22:49;99535.03;;;13.09;100.00
63088;BME280;49173;43.164;27.786;2023-12-14T09:25:16;99531.34;;;13.10;100.00
63088;BME280;49173;43.164;27.786;2023-12-14T09:27:42;99534.56;;;13.15;100.00
63088;BME280;49173;43.164;27.786;2023-12-14T09:30:09;99515.81;;;13.13;100.00
63088;BME280;49173;43.164;27.786;2023-12-14T09:32:35;99514.97;;;13.13;100.00
63088;BME280;49173;43.164;27.786;2023-12-14T09:35:01;99517.19;;;13.19;100.00
63088;BME280;49173;43.164;27.786;2023-12-14T09:37:27;99527.50;;;13.25;100.00
63088;BME280;49173;43.164;27.786;2023-12-14T09:39:53;99526.25;;;13.29;100.00
63088;BME280;49173;43.164;27.786;2023-12-14T09:42:20;99525.06;;;13.33;99.83
63088;BME280;49173;43.164;27.786;2023-12-14T09:44:50;99513.66;;;13.41;98.91
63088;BME280;49173;43.164;27.786;2023-12-14T09:47:16;99514.75;;;13.50;97.19
63088;BME280;49173;43.164;27.786;2023-12-14T09:49:42;99518.94;;;13.54;95.85
63088;BME280;49173;43.164;27.786;2023-12-14T09:52:10;99499.66;;;13.58;94.93
63088;BME280;49173;43.164;27.786;2023-12-14T09:54:35;99497.47;;;13.63;94.16
63088;BME280;49173;43.164;27.786;2023-12-14T09:57:02;99496.09;;;13.69;93.47
63088;BME280;49173;43.164;27.786;2023-12-14T09:59:28;99505.53;;;13.74;92.99
63088;BME280;49173;43.164;27.786;2023-12-14T10:02:09;99510.41;;;13.81;92.64
63088;BME280;49173;43.164;27.786;2023-12-14T10:04:35;99514.72;;;13.83;92.34
63088;BME280;49173;43.164;27.786;2023-12-14T10:07:02;99517.16;;;13.86;93.26
63088;BME280;49173;43.164;27.786;2023-12-14T10:09:33;99501.69;;;13.88;93.05
63088;BME280;49173;43.164;27.786;2023-12-14T10:12:07;99491.66;;;13.90;92.61
63088;BME280;49173;43.164;27.786;2023-12-14T10:14:35;99497.75;;;13.92;92.61
63088;BME280;49173;43.164;27.786;2023-12-14T10:17:19;99492.22;;;13.94;91.87
63088;BME280;49173;43.164;27.786;2023-12-14T10:19:46;99496.28;;;13.99;91.27
63088;BME280;49173;43.164;27.786;2023-12-14T10:22:17;99488.66;;;14.05;90.43
63088;BME280;49173;43.164;27.786;2023-12-14T10:24:44;99495.25;;;14.12;89.53
63088;BME280;49173;43.164;27.786;2023-12-14T10:27:11;99509.22;;;14.17;89.88
63088;BME280;49173;43.164;27.786;2023-12-14T10:29:37;99498.66;;;14.25;88.95
63088;BME280;49173;43.164;27.786;2023-12-14T10:32:05;99516.03;;;14.32;87.92
63088;BME280;49173;43.164;27.786;2023-12-14T10:34:33;99494.66;;;14.40;86.53
63088;BME280;49173;43.164;27.786;2023-12-14T10:36:59;99494.16;;;14.46;85.32
63088;BME280;49173;43.164;27.786;2023-12-14T10:39:27;99489.19;;;14.51;84.83
63088;BME280;49173;43.164;27.786;2023-12-14T10:41:55;99493.50;;;14.54;83.66
63088;BME280;49173;43.164;27.786;2023-12-14T10:44:26;99476.88;;;14.59;82.32
63088;BME280;49173;43.164;27.786;2023-12-14T10:46:55;99475.38;;;14.66;82.24
63088;BME280;49173;43.164;27.786;2023-12-14T10:49:28;99489.34;;;14.71;81.99
63088;BME280;49173;43.164;27.786;2023-12-14T10:51:57;99489.81;;;14.76;81.61
63088;BME280;49173;43.164;27.786;2023-12-14T10:54:25;99472.22;;;14.81;81.19
63088;BME280;49173;43.164;27.786;2023-12-14T10:56:58;99475.38;;;14.87;80.63
63088;BME280;49173;43.164;27.786;2023-12-14T10:59:24;99474.25;;;14.89;80.23
63088;BME280;49173;43.164;27.786;2023-12-14T11:01:54;99463.78;;;14.96;80.05
63088;BME280;49173;43.164;27.786;2023-12-14T11:04:25;99464.88;;;14.93;79.35
63088;BME280;49173;43.164;27.786;2023-12-14T11:06:57;99472.03;;;14.94;78.96
63088;BME280;49173;43.164;27.786;2023-12-14T11:09:24;99482.28;;;15.00;77.37
63088;BME280;49173;43.164;27.786;2023-12-14T11:14:28;99471.66;;;15.08;77.90
63088;BME280;49173;43.164;27.786;2023-12-14T11:17:05;99475.63;;;15.04;77.95
63088;BME280;49173;43.164;27.786;2023-12-14T11:19:32;99488.13;;;15.05;78.69
63088;BME280;49173;43.164;27.786;2023-12-14T11:22:11;99487.56;;;15.02;79.92
63088;BME280;49173;43.164;27.786;2023-12-14T11:24:41;99487.81;;;14.99;79.13
63088;BME280;49173;43.164;27.786;2023-12-14T11:27:11;99500.75;;;14.95;79.40
63088;BME280;49173;43.164;27.786;2023-12-14T11:29:38;99495.72;;;14.91;78.81
63088;BME280;49173;43.164;27.786;2023-12-14T11:32:06;99487.91;;;14.88;78.63
63088;BME280;49173;43.164;27.786;2023-12-14T11:34:32;99491.47;;;14.88;78.27
63088;BME280;49173;43.164;27.786;2023-12-14T11:36:58;99483.22;;;14.90;78.61
63088;BME280;49173;43.164;27.786;2023-12-14T11:39:24;99489.47;;;14.90;77.88
63088;BME280;49173;43.164;27.786;2023-12-14T11:42:04;99489.19;;;14.93;78.27
63088;BME280;49173;43.164;27.786;2023-12-14T11:44:32;99489.19;;;14.93;77.80
63088;BME280;49173;43.164;27.786;2023-12-14T11:46:58;99490.66;;;14.97;77.52
63088;BME280;49173;43.164;27.786;2023-12-14T11:49:25;99494.06;;;14.99;76.88
63088;BME280;49173;43.164;27.786;2023-12-14T11:51:55;99481.03;;;15.04;76.66
63088;BME280;49173;43.164;27.786;2023-12-14T11:54:21;99485.03;;;15.10;74.77
63088;BME280;49173;43.164;27.786;2023-12-14T11:56:48;99483.91;;;15.13;75.02
63088;BME280;49173;43.164;27.786;2023-12-14T11:59:17;99488.16;;;15.15;75.16
63088;BME280;49173;43.164;27.786;2023-12-14T12:02:00;99488.06;;;15.17;74.93
63088;BME280;49173;43.164;27.786;2023-12-14T12:04:27;99487.63;;;15.21;74.58
63088;BME280;49173;43.164;27.786;2023-12-14T12:07:04;99477.69;;;15.22;74.65
63088;BME280;49173;43.164;27.786;2023-12-14T12:12:04;99466.75;;;15.23;74.95
63088;BME280;49173;43.164;27.786;2023-12-14T12:14:30;99483.28;;;15.30;74.54
63088;BME280;49173;43.164;27.786;2023-12-14T12:16:56;99479.44;;;15.32;74.58
63088;BME280;49173;43.164;27.786;2023-12-14T12:19:22;99479.59;;;15.31;74.74
63088;BME280;49173;43.164;27.786;2023-12-14T12:21:48;99498.38;;;15.32;74.72
63088;BME280;49173;43.164;27.786;2023-12-14T12:24:13;99503.31;;;15.27;75.03
63088;BME280;49173;43.164;27.786;2023-12-14T12:26:39;99495.06;;;15.29;75.10
63088;BME280;49173;43.164;27.786;2023-12-14T12:29:07;99495.22;;;15.27;74.76
63088;BME280;49173;43.164;27.786;2023-12-14T12:31:34;99498.75;;;15.28;75.22
63088;BME280;49173;43.164;27.786;2023-12-14T12:34:00;99496.19;;;15.26;75.23
63088;BME280;49173;43.164;27.786;2023-12-14T12:36:26;99498.06;;;15.26;75.43
63088;BME280;49173;43.164;27.786;2023-12-14T12:38:52;99506.75;;;15.29;75.39
63088;BME280;49173;43.164;27.786;2023-12-14T12:41:18;99511.28;;;15.29;75.44
63088;BME280;49173;43.164;27.786;2023-12-14T12:43:44;99503.31;;;15.27;75.36
63088;BME280;49173;43.164;27.786;2023-12-14T12:46:10;99516.59;;;15.30;75.53
63088;BME280;49173;43.164;27.786;2023-12-14T12:48:36;99523.84;;;15.30;75.27
63088;BME280;49173;43.164;27.786;2023-12-14T12:51:02;99533.81;;;15.29;75.93